Time;durP1;ratioP1;P1;durP2;ratioP2;P2;SDS_P1;SDS_P2;PMS_P1;PMS_P2;Temp;Humidity;BMP_temperature;BMP_pressure;BME280_temperature;BME280_humidity;BME280_pressure;Samples;Min_cycle;Max_cycle;Signal;HPM_P1;HPM_P2
2022/05/01 00:00:18;;;;;;;27.80;17.33;;;12.90;85.90;;;;;;7389831;19;20387;-48
2022/05/01 00:02:48;;;;;;;30.77;20.53;;;12.90;85.40;;;;;;7383070;19;20483;-48
2022/05/01 00:05:25;;;;;;;30.80;17.47;;;12.90;84.70;;;;;;7390082;19;20411;-48
2022/05/01 00:07:54;;;;;;;27.17;17.77;;;13.00;84.40;;;;;;7387156;19;20408;-49
2022/05/01 00:10:24;;;;;;;28.57;19.10;;;13.00;84.10;;;;;;7388393;19;20476;-48
2022/05/01 00:12:53;;;;;;;29.20;19.80;;;13.10;83.50;;;;;;7387832;19;20438;-48
2022/05/01 00:15:23;;;;;;;27.17;17.30;;;13.30;82.80;;;;;;7389279;19;20642;-49
2022/05/01 00:17:52;;;;;;;33.00;19.87;;;13.30;82.70;;;;;;7385061;19;20419;-48
2022/05/01 00:20:26;;;;;;;32.20;20.60;;;13.30;82.70;;;;;;7387425;19;20424;-48
2022/05/01 00:22:58;;;;;;;27.43;18.13;;;13.40;82.60;;;;;;7383447;19;20448;-48
2022/05/01 00:25:30;;;;;;;31.63;21.30;;;13.40;82.30;;;;;;7385848;19;21731;-49
2022/05/01 00:28:02;;;;;;;32.00;18.93;;;13.40;82.50;;;;;;7388139;19;20942;-47
2022/05/01 00:30:32;;;;;;;35.80;21.97;;;13.40;82.20;;;;;;7384743;19;20445;-47
2022/05/01 00:38:36;;;;;;;31.43;19.03;;;13.50;82.60;;;;;;7385747;19;20379;-48
2022/05/01 00:41:07;;;;;;;33.90;20.97;;;13.40;82.50;;;;;;7388061;19;20483;-48
2022/05/01 00:44:03;;;;;;;31.80;18.93;;;13.40;82.30;;;;;;7386061;19;20776;-48
2022/05/01 00:46:33;;;;;;;32.90;20.03;;;13.40;81.90;;;;;;7379764;19;20863;-48
2022/05/01 00:49:04;;;;;;;27.47;19.87;;;13.30;82.30;;;;;;7381956;19;20420;-48
2022/05/01 00:51:43;;;;;;;32.93;20.60;;;13.40;82.20;;;;;;7382023;19;20777;-48
2022/05/01 00:54:14;;;;;;;32.77;20.60;;;13.40;82.00;;;;;;7379022;19;20455;-48
2022/05/01 00:56:47;;;;;;;31.53;20.10;;;13.40;82.00;;;;;;7382379;19;20480;-48
2022/05/01 00:59:19;;;;;;;31.00;20.07;;;13.50;81.90;;;;;;7377716;19;20409;-48
2022/05/01 01:01:51;;;;;;;27.00;18.40;;;13.50;81.60;;;;;;7376739;19;20395;-48
2022/05/01 01:04:20;;;;;;;30.13;19.67;;;13.40;81.80;;;;;;7381121;19;20444;-48
2022/05/01 01:06:52;;;;;;;30.00;19.27;;;13.40;81.60;;;;;;7380754;19;20416;-48
2022/05/01 01:09:22;;;;;;;28.63;20.03;;;13.40;81.50;;;;;;7380611;19;20991;-48
2022/05/01 01:12:53;;;;;;;28.97;18.50;;;13.40;81.20;;;;;;7378185;19;20401;-49
2022/05/01 01:14:43;;;;;;;28.33;18.83;;;13.30;81.30;;;;;;7379598;19;20408;-48
2022/05/01 01:17:15;;;;;;;29.50;18.60;;;13.10;82.70;;;;;;7379081;19;20412;-48
2022/05/01 01:19:44;;;;;;;28.20;18.13;;;13.10;82.70;;;;;;7371980;19;20530;-50
2022/05/01 01:22:19;;;;;;;33.07;20.00;;;13.10;83.30;;;;;;7379952;19;20428;-48
2022/05/01 01:24:48;;;;;;;26.20;17.30;;;13.10;82.80;;;;;;7379243;19;20443;-48
2022/05/01 01:27:19;;;;;;;34.93;18.70;;;13.10;82.90;;;;;;7379910;19;20409;-48
2022/05/01 01:32:34;;;;;;;36.40;21.23;;;13.20;82.10;;;;;;7378790;19;20388;-48
2022/05/01 01:35:08;;;;;;;29.80;20.83;;;13.20;81.60;;;;;;7381047;19;20419;-48
2022/05/01 01:37:40;;;;;;;31.53;19.40;;;13.20;81.70;;;;;;7379793;19;21222;-48
2022/05/01 01:40:11;;;;;;;30.97;19.03;;;13.00;81.80;;;;;;7381956;19;20396;-48
2022/05/01 01:42:42;;;;;;;35.10;19.90;;;13.10;82.10;;;;;;7380768;19;20415;-48
2022/05/01 01:45:14;;;;;;;32.70;21.27;;;13.00;82.10;;;;;;7382442;19;20376;-48
2022/05/01 01:47:44;;;;;;;35.10;19.20;;;13.10;81.90;;;;;;7376651;19;20484;-48
2022/05/01 01:50:15;;;;;;;32.77;20.20;;;13.10;81.60;;;;;;7380330;19;20383;-48
2022/05/01 01:52:49;;;;;;;31.40;19.70;;;13.20;81.90;;;;;;7380840;19;20415;-48
2022/05/01 01:55:21;;;;;;;31.73;18.67;;;13.30;81.60;;;;;;7375637;19;20667;-49
2022/05/01 01:57:51;;;;;;;26.70;17.87;;;13.30;81.20;;;;;;7378552;19;20424;-48
2022/05/01 02:00:20;;;;;;;27.70;17.93;;;13.40;80.80;;;;;;7377530;19;20488;-48
2022/05/01 02:02:52;;;;;;;29.73;18.70;;;13.40;79.90;;;;;;7377530;19;20750;-49
2022/05/01 02:05:21;;;;;;;29.63;18.13;;;13.40;79.50;;;;;;7377506;19;21038;-49
2022/05/01 02:07:58;;;;;;;29.93;18.03;;;13.30;79.90;;;;;;7380140;19;20383;-48
2022/05/01 02:10:31;;;;;;;28.10;17.47;;;13.30;80.30;;;;;;7377513;19;20503;-48
2022/05/01 02:13:01;;;;;;;28.03;17.87;;;13.20;80.50;;;;;;7378793;19;20376;-49
2022/05/01 02:15:33;;;;;;;27.97;18.53;;;13.20;80.70;;;;;;7377941;19;20409;-49
2022/05/01 02:18:06;;;;;;;29.37;19.40;;;13.20;81.00;;;;;;7373228;19;21053;-48
2022/05/01 02:23:24;;;;;;;25.83;17.43;;;13.30;80.00;;;;;;7374865;19;20408;-48
2022/05/01 02:25:54;;;;;;;32.33;19.93;;;13.40;79.50;;;;;;7376292;19;20483;-48
2022/05/01 02:28:26;;;;;;;30.90;18.90;;;13.40;79.70;;;;;;7377093;19;20826;-48
2022/05/01 02:30:55;;;;;;;31.47;20.23;;;13.40;79.30;;;;;;7378362;19;20420;-49
2022/05/01 02:33:28;;;;;;;35.27;19.10;;;13.30;79.50;;;;;;7376835;19;20409;-48
2022/05/01 02:36:03;;;;;;;31.70;19.73;;;13.30;79.90;;;;;;7376058;19;20391;-48
2022/05/01 02:38:38;;;;;;;30.40;18.67;;;13.20;80.30;;;;;;7376706;19;20416;-48
2022/05/01 02:41:07;;;;;;;28.40;18.60;;;13.20;80.80;;;;;;7375668;19;20392;-48
2022/05/01 02:43:39;;;;;;;28.93;17.70;;;13.10;81.20;;;;;;7375843;19;21041;-48
2022/05/01 02:46:09;;;;;;;32.83;18.50;;;13.10;80.90;;;;;;7378375;19;20414;-48
2022/05/01 02:48:38;;;;;;;33.20;19.70;;;13.10;81.00;;;;;;7375966;19;20376;-49
2022/05/01 02:51:08;;;;;;;28.57;19.20;;;13.00;80.90;;;;;;7377127;19;20463;-48
2022/05/01 02:53:40;;;;;;;29.13;18.00;;;12.90;81.40;;;;;;7375621;19;20946;-48
2022/05/01 02:56:10;;;;;;;33.67;18.60;;;12.80;81.90;;;;;;7376791;19;20480;-48
2022/05/01 02:58:39;;;;;;;31.30;18.73;;;12.80;82.00;;;;;;7376365;19;20384;-48
2022/05/01 03:01:09;;;;;;;32.77;19.10;;;12.70;82.20;;;;;;7374050;19;20423;-48
2022/05/01 03:03:38;;;;;;;30.73;18.03;;;12.70;82.40;;;;;;7374020;19;20961;-48
2022/05/01 03:06:08;;;;;;;32.83;19.63;;;12.80;82.40;;;;;;7377774;19;20528;-48
2022/05/01 03:08:42;;;;;;;28.00;18.97;;;12.80;82.40;;;;;;7378047;19;20939;-48
2022/05/01 03:11:12;;;;;;;32.07;19.03;;;12.60;83.10;;;;;;7377124;19;20437;-48
2022/05/01 03:13:43;;;;;;;28.47;17.80;;;12.70;83.50;;;;;;7374562;19;20476;-48
2022/05/01 03:16:13;;;;;;;30.87;20.70;;;12.70;83.70;;;;;;7376505;19;20809;-48
2022/05/01 03:24:13;;;;;;;31.53;19.07;;;12.70;82.80;;;;;;7373733;19;20395;-48
2022/05/01 03:26:43;;;;;;;31.87;18.80;;;12.60;83.20;;;;;;7375643;19;20376;-48
2022/05/01 03:29:15;;;;;;;29.87;18.40;;;12.60;84.40;;;;;;7376627;19;21014;-48
2022/05/01 03:31:48;;;;;;;38.60;21.53;;;12.60;84.10;;;;;;7370169;19;20787;-49
2022/05/01 03:34:18;;;;;;;37.80;20.30;;;12.80;83.60;;;;;;7377189;19;20917;-50
2022/05/01 03:36:48;;;;;;;32.20;19.33;;;12.70;83.30;;;;;;7373553;19;20902;-48
2022/05/01 03:39:20;;;;;;;34.90;20.70;;;12.70;83.70;;;;;;7373144;19;20420;-48
2022/05/01 03:41:50;;;;;;;35.87;20.40;;;12.70;83.70;;;;;;7376653;19;20749;-48
2022/05/01 03:44:21;;;;;;;34.30;21.00;;;12.70;84.00;;;;;;7378197;19;20964;-48
2022/05/01 03:46:53;;;;;;;34.63;20.30;;;12.60;84.10;;;;;;7372241;19;20387;-48
2022/05/01 03:49:23;;;;;;;33.70;20.23;;;12.70;83.70;;;;;;7377561;19;20413;-48
2022/05/01 03:51:52;;;;;;;37.10;22.30;;;12.80;83.40;;;;;;7373326;19;20925;-47
2022/05/01 03:54:27;;;;;;;33.07;20.80;;;12.90;82.80;;;;;;7374457;19;21006;-48
2022/05/01 03:56:59;;;;;;;34.70;20.60;;;12.90;83.30;;;;;;7373683;19;20411;-49
2022/05/01 03:59:31;;;;;;;34.90;20.70;;;13.00;82.90;;;;;;7375024;19;20392;-48
2022/05/01 04:02:01;;;;;;;35.67;20.87;;;13.00;82.90;;;;;;7374294;19;20380;-48
2022/05/01 04:04:30;;;;;;;38.80;21.70;;;13.10;82.10;;;;;;7375176;19;21043;-47
2022/05/01 04:07:00;;;;;;;34.20;21.20;;;13.10;81.70;;;;;;7375883;19;20389;-47
2022/05/01 04:09:34;;;;;;;35.70;20.10;;;13.10;81.20;;;;;;7373606;19;20420;-49
2022/05/01 04:12:04;;;;;;;41.53;22.50;;;13.10;80.80;;;;;;7376132;19;20373;-48
2022/05/01 04:14:34;;;;;;;34.33;20.77;;;12.70;82.10;;;;;;7375030;19;20418;-48
2022/05/01 04:17:05;;;;;;;42.77;21.13;;;12.70;83.20;;;;;;7373112;19;20941;-48
2022/05/01 04:19:36;;;;;;;33.33;20.00;;;12.80;82.90;;;;;;7367285;19;20424;-48
2022/05/01 04:22:06;;;;;;;35.43;21.63;;;12.90;82.40;;;;;;7376339;19;20371;-47
2022/05/01 04:24:41;;;;;;;32.07;20.50;;;12.90;82.40;;;;;;7379921;19;20412;-47
2022/05/01 04:27:10;;;;;;;29.37;20.00;;;13.00;82.00;;;;;;7380240;19;21051;-48
2022/05/01 04:29:41;;;;;;;34.97;20.40;;;13.00;81.50;;;;;;7382226;19;20401;-49
2022/05/01 04:32:14;;;;;;;34.77;20.47;;;13.10;81.30;;;;;;7380928;19;20392;-48
2022/05/01 04:34:43;;;;;;;31.77;20.40;;;13.10;81.40;;;;;;7382562;19;20390;-48
2022/05/01 04:37:15;;;;;;;38.63;20.10;;;13.10;81.40;;;;;;7382367;19;20408;-48
2022/05/01 04:39:48;;;;;;;31.27;19.00;;;13.00;81.30;;;;;;7379137;19;20416;-48
2022/05/01 04:42:20;;;;;;;29.50;18.07;;;13.00;81.10;;;;;;7377305;19;21166;-48
2022/05/01 04:44:49;;;;;;;30.00;18.30;;;13.00;81.30;;;;;;7379539;19;20456;-49
2022/05/01 04:47:19;;;;;;;31.43;20.17;;;13.10;80.70;;;;;;7381284;19;20412;-48
2022/05/01 04:49:52;;;;;;;31.87;18.97;;;13.10;80.70;;;;;;7381033;19;20397;-48
2022/05/01 04:52:21;;;;;;;35.73;19.93;;;13.10;80.80;;;;;;7380825;19;20952;-49
2022/05/01 04:54:53;;;;;;;31.07;18.80;;;13.10;80.30;;;;;;7379591;19;20703;-47
2022/05/01 04:57:27;;;;;;;31.77;18.20;;;13.10;80.00;;;;;;7382389;19;20412;-48
2022/05/01 05:00:00;;;;;;;29.33;18.77;;;13.00;80.10;;;;;;7377039;19;20416;-49
2022/05/01 05:02:39;;;;;;;29.70;18.83;;;13.00;80.60;;;;;;7380979;19;20401;-48
2022/05/01 05:05:11;;;;;;;31.63;20.40;;;13.00;80.90;;;;;;7380106;19;20404;-48
2022/05/01 05:07:43;;;;;;;31.50;17.63;;;13.00;80.90;;;;;;7382418;19;20921;-48
2022/05/01 05:10:14;;;;;;;28.67;17.97;;;13.00;80.80;;;;;;7379848;19;20381;-48
2022/05/01 05:12:48;;;;;;;31.63;18.70;;;13.00;80.10;;;;;;7376342;19;20392;-48
2022/05/01 05:15:20;;;;;;;32.07;18.90;;;12.60;81.70;;;;;;7377190;19;20380;-48
2022/05/01 05:17:53;;;;;;;32.60;20.30;;;12.70;82.20;;;;;;7376975;19;20419;-48
2022/05/01 05:20:22;;;;;;;28.50;18.67;;;12.70;82.30;;;;;;7377084;19;20896;-48
2022/05/01 05:22:53;;;;;;;30.87;19.87;;;12.80;82.20;;;;;;7379956;19;20496;-48
2022/05/01 05:25:25;;;;;;;32.80;20.40;;;12.80;81.80;;;;;;7380818;19;20373;-48
2022/05/01 05:28:00;;;;;;;33.53;20.50;;;12.70;82.30;;;;;;7375332;19;20396;-49
2022/05/01 05:30:29;;;;;;;35.07;21.77;;;12.70;82.80;;;;;;7373135;19;20398;-39
2022/05/01 05:33:01;;;;;;;31.60;19.63;;;12.90;82.90;;;;;;7380848;19;20395;-40
2022/05/01 05:35:33;;;;;;;34.33;20.73;;;12.90;82.40;;;;;;7381304;19;20416;-40
2022/05/01 05:38:07;;;;;;;32.33;20.60;;;12.80;82.60;;;;;;7381154;19;20544;-39
2022/05/01 05:40:42;;;;;;;32.67;20.23;;;12.80;83.80;;;;;;7376644;19;20452;-40
2022/05/01 05:43:11;;;;;;;32.37;20.10;;;12.80;83.20;;;;;;7380461;19;20428;-40
2022/05/01 05:45:43;;;;;;;29.63;19.30;;;12.80;82.50;;;;;;7376545;19;20442;-39
2022/05/01 05:48:13;;;;;;;31.20;20.87;;;12.90;82.40;;;;;;7378872;19;20416;-39
2022/05/01 05:50:42;;;;;;;32.43;21.07;;;12.90;82.00;;;;;;7378974;19;20376;-39
2022/05/01 05:53:12;;;;;;;29.53;20.70;;;13.00;83.00;;;;;;7378683;19;20373;-39
2022/05/01 05:55:45;;;;;;;32.17;19.33;;;13.00;81.90;;;;;;7379506;19;20416;-39
2022/05/01 05:58:14;;;;;;;30.00;20.10;;;13.10;81.40;;;;;;7378789;19;20420;-39
2022/05/01 06:00:46;;;;;;;28.97;19.77;;;13.10;81.40;;;;;;7377906;19;20423;-47
2022/05/01 06:03:19;;;;;;;36.17;20.63;;;13.10;80.70;;;;;;7378526;19;20749;-48
2022/05/01 06:05:51;;;;;;;25.43;18.40;;;13.10;80.80;;;;;;7378936;19;20404;-48
2022/05/01 06:08:23;;;;;;;31.23;19.80;;;13.20;81.10;;;;;;7380317;19;20799;-48
2022/05/01 06:10:57;;;;;;;30.07;18.77;;;13.20;81.00;;;;;;7375808;19;20416;-48
2022/05/01 06:13:27;;;;;;;32.77;20.20;;;13.20;81.40;;;;;;7378300;19;21033;-48
2022/05/01 06:15:56;;;;;;;34.73;20.50;;;13.20;81.50;;;;;;7376032;19;20416;-49
2022/05/01 06:18:28;;;;;;;29.47;19.17;;;13.30;80.80;;;;;;7372390;19;20412;-48
2022/05/01 06:20:58;;;;;;;30.80;18.23;;;13.30;80.40;;;;;;7372832;19;20381;-49
2022/05/01 06:23:30;;;;;;;30.87;18.37;;;13.30;80.40;;;;;;7378177;19;20424;-48
2022/05/01 06:26:07;;;;;;;30.80;18.50;;;13.30;80.10;;;;;;7379951;19;20846;-49
2022/05/01 06:28:37;;;;;;;31.40;19.20;;;13.40;79.10;;;;;;7376726;19;20738;-48
2022/05/01 06:31:09;;;;;;;33.63;20.03;;;13.50;78.80;;;;;;7378394;19;20408;-48
2022/05/01 06:33:41;;;;;;;27.50;17.47;;;13.60;79.10;;;;;;7376274;19;20368;-48
2022/05/01 06:36:11;;;;;;;32.00;20.37;;;13.50;78.10;;;;;;7379018;19;20417;-50
2022/05/01 06:38:42;;;;;;;27.10;18.87;;;13.60;78.20;;;;;;7376971;19;20419;-48
2022/05/01 06:41:14;;;;;;;29.40;18.57;;;13.50;77.90;;;;;;7378616;19;20456;-48
2022/05/01 06:43:45;;;;;;;29.67;19.23;;;13.60;78.20;;;;;;7375749;19;20408;-48
2022/05/01 06:46:18;;;;;;;33.60;19.60;;;13.70;77.90;;;;;;7374204;19;20380;-50
2022/05/01 06:48:49;;;;;;;27.07;17.20;;;13.70;77.30;;;;;;7379160;19;20416;-48
2022/05/01 06:51:21;;;;;;;26.50;18.27;;;13.80;76.90;;;;;;7375692;19;20380;-48
2022/05/01 06:53:56;;;;;;;31.00;19.77;;;13.70;77.30;;;;;;7374619;19;20454;-49
2022/05/01 06:56:30;;;;;;;23.73;16.63;;;13.70;77.70;;;;;;7373474;19;20433;-50
2022/05/01 06:58:59;;;;;;;28.20;18.27;;;13.70;77.90;;;;;;7373560;19;20455;-49
2022/05/01 07:01:29;;;;;;;26.20;18.53;;;13.80;77.70;;;;;;7371979;19;20833;-48
2022/05/01 07:03:58;;;;;;;25.00;17.07;;;14.00;77.20;;;;;;7374820;19;20735;-48
2022/05/01 07:06:28;;;;;;;27.43;19.23;;;14.10;76.00;;;;;;7370836;19;20416;-49
2022/05/01 07:08:59;;;;;;;23.77;16.50;;;14.20;75.70;;;;;;7372457;19;20388;-48
2022/05/01 07:11:31;;;;;;;26.57;18.07;;;14.20;75.70;;;;;;7375893;19;20372;-49
2022/05/01 07:14:01;;;;;;;28.47;18.13;;;14.30;74.80;;;;;;7375455;19;20372;-48
2022/05/01 07:16:33;;;;;;;24.63;16.57;;;14.40;74.50;;;;;;7373815;19;20419;-48
2022/05/01 07:19:04;;;;;;;31.47;18.30;;;14.40;73.80;;;;;;7373633;19;20448;-48
2022/05/01 07:21:34;;;;;;;30.43;18.73;;;14.40;73.30;;;;;;7374688;19;20412;-48
2022/05/01 07:24:03;;;;;;;28.40;17.60;;;14.20;73.90;;;;;;7374578;19;20435;-48
2022/05/01 07:26:40;;;;;;;28.40;17.17;;;14.30;74.20;;;;;;7372164;19;20453;-48
2022/05/01 07:29:12;;;;;;;27.73;16.40;;;14.40;74.10;;;;;;7375060;19;20893;-48
2022/05/01 07:31:42;;;;;;;26.07;17.63;;;14.40;73.10;;;;;;7375347;19;20372;-48
2022/05/01 07:34:11;;;;;;;27.00;17.70;;;14.30;73.30;;;;;;7376747;19;20412;-48
2022/05/01 07:36:41;;;;;;;25.60;16.17;;;14.40;72.70;;;;;;7375108;19;20380;-48
2022/05/01 07:39:13;;;;;;;23.70;15.87;;;14.50;72.70;;;;;;7373129;19;20384;-48
2022/05/01 07:41:45;;;;;;;24.80;16.90;;;14.60;71.80;;;;;;7374298;19;20766;-48
2022/05/01 07:44:14;;;;;;;25.47;15.67;;;14.40;72.50;;;;;;7372989;19;20942;-48
2022/05/01 07:46:44;;;;;;;24.90;17.50;;;14.10;72.50;;;;;;7376829;19;20416;-48
2022/05/01 07:49:14;;;;;;;24.43;16.17;;;14.10;73.60;;;;;;7377701;19;20926;-48
2022/05/01 07:51:47;;;;;;;23.70;17.80;;;14.20;73.90;;;;;;7373485;19;20432;-48
2022/05/01 07:54:16;;;;;;;26.37;16.97;;;14.20;73.40;;;;;;7374222;19;20436;-48
2022/05/01 07:56:48;;;;;;;25.00;16.90;;;14.10;73.80;;;;;;7379574;19;20372;-49
2022/05/01 07:59:20;;;;;;;24.77;15.83;;;14.30;73.00;;;;;;7382184;19;20415;-48
2022/05/01 08:01:52;;;;;;;25.37;16.53;;;14.40;72.50;;;;;;7378914;19;20357;-48
2022/05/01 08:04:28;;;;;;;25.87;16.13;;;14.70;71.60;;;;;;7383134;19;20416;-48
2022/05/01 08:06:58;;;;;;;23.27;15.70;;;14.80;70.60;;;;;;7381767;19;20908;-48
2022/05/01 08:09:29;;;;;;;21.80;16.17;;;14.70;70.90;;;;;;7381785;19;20925;-48
2022/05/01 08:12:01;;;;;;;24.13;16.20;;;14.80;71.70;;;;;;7382016;19;20762;-48
2022/05/01 08:14:30;;;;;;;24.87;17.37;;;15.10;70.20;;;;;;7380523;19;21097;-48
2022/05/01 08:17:00;;;;;;;21.13;14.47;;;15.30;68.90;;;;;;7380539;19;20416;-48
2022/05/01 08:22:12;;;;;;;18.23;13.60;;;15.60;67.00;;;;;;7380447;19;20438;-48
2022/05/01 08:24:43;;;;;;;22.50;14.37;;;15.80;66.60;;;;;;7382048;19;20424;-48
2022/05/01 08:27:16;;;;;;;19.33;14.80;;;16.00;65.20;;;;;;7381257;19;20945;-48
2022/05/01 08:29:45;;;;;;;19.90;14.73;;;16.00;63.80;;;;;;7377825;19;20379;-48
2022/05/01 08:32:15;;;;;;;19.47;14.73;;;16.00;63.40;;;;;;7383414;19;20372;-49
2022/05/01 08:34:47;;;;;;;22.17;15.77;;;16.10;64.10;;;;;;7382782;19;20377;-48
2022/05/01 08:37:17;;;;;;;18.80;13.73;;;16.30;63.20;;;;;;7383479;19;20379;-49
2022/05/01 08:39:46;;;;;;;18.17;13.90;;;16.30;62.30;;;;;;7381101;19;20368;-48
2022/05/01 08:42:18;;;;;;;17.47;13.77;;;16.30;62.00;;;;;;7381004;19;20940;-47
2022/05/01 08:44:50;;;;;;;20.40;13.53;;;16.30;61.80;;;;;;7380930;19;20403;-47
2022/05/01 08:47:28;;;;;;;19.20;13.73;;;16.10;61.60;;;;;;7381074;19;20387;-47
2022/05/01 08:50:00;;;;;;;21.03;14.60;;;16.00;62.90;;;;;;7380464;19;20416;-47
2022/05/01 08:52:30;;;;;;;20.50;16.23;;;15.70;64.10;;;;;;7383680;19;20910;-48
2022/05/01 08:55:01;;;;;;;19.80;14.60;;;15.80;64.40;;;;;;7379778;19;20383;-47
2022/05/01 08:57:36;;;;;;;20.40;14.10;;;15.90;64.20;;;;;;7379007;19;20412;-47
2022/05/01 09:00:07;;;;;;;20.10;14.30;;;15.90;63.80;;;;;;7377143;19;20943;-47
2022/05/01 09:02:37;;;;;;;19.30;14.33;;;16.00;63.60;;;;;;7382530;19;20994;-48
2022/05/01 09:05:11;;;;;;;23.00;15.43;;;16.10;62.50;;;;;;7382831;19;20404;-47
2022/05/01 09:07:41;;;;;;;18.93;13.87;;;16.10;62.00;;;;;;7379015;19;20443;-47
2022/05/01 09:10:13;;;;;;;18.90;13.30;;;16.20;61.40;;;;;;7380723;19;20460;-47
2022/05/01 09:12:53;;;;;;;19.73;13.97;;;16.10;61.60;;;;;;7382861;19;20383;-47
2022/05/01 09:15:33;;;;;;;18.77;13.40;;;16.00;62.00;;;;;;7380609;19;20376;-47
2022/05/01 09:18:05;;;;;;;18.97;14.13;;;16.20;61.60;;;;;;7379286;19;20408;-49
2022/05/01 09:20:36;;;;;;;17.17;13.00;;;16.10;60.00;;;;;;7378298;19;20379;-49
2022/05/01 09:23:06;;;;;;;20.23;13.80;;;15.80;61.40;;;;;;7379698;19;20397;-47
2022/05/01 09:25:37;;;;;;;20.43;14.33;;;15.90;61.90;;;;;;7380625;19;20416;-47
2022/05/01 09:28:26;;;;;;;19.50;14.50;;;16.00;61.50;;;;;;7378674;19;20419;-49
2022/05/01 09:30:55;;;;;;;24.13;14.27;;;15.80;62.10;;;;;;7382078;19;20962;-48
2022/05/01 09:33:25;;;;;;;22.17;15.10;;;15.60;62.30;;;;;;7378895;19;20749;-50
2022/05/01 09:35:54;;;;;;;21.87;15.47;;;15.70;61.90;;;;;;7378697;19;20391;-48
2022/05/01 09:38:25;;;;;;;17.37;13.40;;;15.70;61.90;;;;;;7380849;19;20364;-47
2022/05/01 09:40:57;;;;;;;19.30;13.77;;;15.70;61.20;;;;;;7378967;19;20741;-47
2022/05/01 09:43:43;;;;;;;18.67;13.13;;;15.70;62.30;;;;;;7378844;19;20371;-47
2022/05/01 09:46:18;;;;;;;19.40;12.50;;;16.20;61.40;;;;;;7381511;19;20779;-47
2022/05/01 09:49:00;;;;;;;17.57;12.70;;;16.50;59.70;;;;;;7381578;19;20400;-47
2022/05/01 09:51:35;;;;;;;16.50;12.10;;;16.90;58.20;;;;;;7378541;19;20479;-47
2022/05/01 09:54:06;;;;;;;18.60;13.07;;;17.20;58.00;;;;;;7381149;19;20387;-47
2022/05/01 09:56:46;;;;;;;18.47;13.50;;;17.40;56.70;;;;;;7381197;19;20412;-47
2022/05/01 09:59:23;;;;;;;18.20;12.80;;;17.60;55.70;;;;;;7375313;19;20543;-47
2022/05/01 10:02:01;;;;;;;20.07;13.53;;;17.70;55.00;;;;;;7379291;19;20783;-48
2022/05/01 10:04:34;;;;;;;16.30;13.60;;;18.20;54.70;;;;;;7380939;19;20384;-47
2022/05/01 10:07:08;;;;;;;17.07;12.50;;;18.60;53.70;;;;;;7379829;19;20380;-49
2022/05/01 10:09:38;;;;;;;14.17;11.00;;;19.00;54.30;;;;;;7375802;19;20396;-48
2022/05/01 10:12:10;;;;;;;15.90;10.70;;;20.20;51.00;;;;;;7379983;19;20414;-48
2022/05/01 10:14:46;;;;;;;15.30;12.70;;;20.80;49.70;;;;;;7378328;19;20380;-48
2022/05/01 10:17:16;;;;;;;13.77;11.93;;;21.50;47.40;;;;;;7380141;19;20379;-47
2022/05/01 10:19:49;;;;;;;12.80;11.37;;;22.30;46.80;;;;;;7371881;19;20807;-47
2022/05/01 10:22:21;;;;;;;19.03;13.10;;;23.20;43.50;;;;;;7377471;19;21018;-49
2022/05/01 10:24:50;;;;;;;13.23;11.67;;;23.30;42.60;;;;;;7380100;19;20771;-48
2022/05/01 10:27:29;;;;;;;13.27;11.27;;;22.80;42.70;;;;;;7379345;19;20372;-48
2022/05/01 10:33:19;;;;;;;15.60;11.63;;;21.50;44.90;;;;;;7377496;19;20495;-48
2022/05/01 10:36:26;;;;;;;13.87;11.60;;;21.00;45.40;;;;;;7378936;19;20430;-47
2022/05/01 10:39:09;;;;;;;12.53;10.53;;;20.40;45.90;;;;;;7379600;19;20368;-48
2022/05/01 10:41:44;;;;;;;14.70;13.00;;;20.40;46.80;;;;;;7373089;19;20392;-48
2022/05/01 10:44:30;;;;;;;13.30;11.53;;;20.50;46.40;;;;;;7374588;19;20380;-48
2022/05/01 10:47:17;;;;;;;17.80;12.10;;;20.40;46.00;;;;;;7377314;19;20885;-48
2022/05/01 10:49:48;;;;;;;13.40;11.30;;;20.30;46.60;;;;;;7379139;19;20734;-47
2022/05/01 10:52:21;;;;;;;13.60;10.80;;;20.10;46.40;;;;;;7373846;19;20384;-48
2022/05/01 10:54:56;;;;;;;16.77;12.40;;;19.90;46.30;;;;;;7379676;19;21153;-48
2022/05/01 10:57:28;;;;;;;14.23;10.37;;;19.80;46.70;;;;;;7377218;19;20387;-48
2022/05/01 11:00:10;;;;;;;14.63;11.43;;;19.60;47.20;;;;;;7374950;19;20416;-48
2022/05/01 11:02:48;;;;;;;14.87;11.30;;;19.50;47.60;;;;;;7377230;19;20796;-48
2022/05/01 11:05:46;;;;;;;15.10;11.20;;;19.50;47.40;;;;;;7375528;19;20722;-48
2022/05/01 11:08:17;;;;;;;14.47;11.00;;;19.50;47.20;;;;;;7377180;19;20427;-48
2022/05/01 11:10:47;;;;;;;15.10;11.20;;;19.10;47.30;;;;;;7373874;19;20940;-47
2022/05/01 11:13:19;;;;;;;13.97;11.27;;;18.70;48.00;;;;;;7374036;19;20473;-47
2022/05/01 11:15:51;;;;;;;15.43;11.73;;;18.40;49.10;;;;;;7369517;19;20746;-47
2022/05/01 11:18:31;;;;;;;13.83;10.17;;;18.40;49.10;;;;;;7370179;19;21013;-47
2022/05/01 11:21:30;;;;;;;12.47;10.40;;;18.30;49.10;;;;;;7372617;19;20941;-48
2022/05/01 11:24:00;;;;;;;11.63;9.40;;;18.50;49.00;;;;;;7368458;19;20436;-49
2022/05/01 11:26:35;;;;;;;12.50;9.33;;;18.50;48.20;;;;;;7372930;19;20383;-48
2022/05/01 11:29:13;;;;;;;12.03;9.40;;;18.70;47.90;;;;;;7374140;19;21228;-48
2022/05/01 11:31:52;;;;;;;13.20;10.23;;;18.80;47.30;;;;;;7371050;19;20913;-48
2022/05/01 11:34:39;;;;;;;12.30;9.30;;;18.80;46.80;;;;;;7375773;19;20371;-48
2022/05/01 11:37:10;;;;;;;12.87;9.43;;;18.50;48.00;;;;;;7371308;19;20921;-48
2022/05/01 11:40:15;;;;;;;12.07;9.70;;;18.40;47.80;;;;;;7374398;19;20855;-48
2022/05/01 11:42:45;;;;;;;12.97;9.63;;;18.60;48.40;;;;;;7370251;19;20388;-48
2022/05/01 11:45:18;;;;;;;10.80;9.40;;;18.80;47.40;;;;;;7376635;19;20376;-49
2022/05/01 11:47:53;;;;;;;14.80;10.33;;;18.90;46.80;;;;;;7374245;19;20917;-48
2022/05/01 11:50:29;;;;;;;13.13;10.57;;;19.00;46.70;;;;;;7371751;19;20376;-48
2022/05/01 11:53:00;;;;;;;10.97;8.93;;;19.20;46.80;;;;;;7377328;19;21101;-48
2022/05/01 12:03:35;;;;;;;13.50;10.63;;;22.10;42.60;;;;;;7372636;19;20455;-48
2022/05/01 12:06:07;;;;;;;14.73;9.70;;;22.50;41.40;;;;;;7376012;19;20956;-48
2022/05/01 12:08:50;;;;;;;11.50;10.13;;;22.60;40.10;;;;;;7376564;19;21001;-49
2022/05/01 12:11:32;;;;;;;12.47;10.43;;;22.30;40.50;;;;;;7374637;19;20384;-48
2022/05/01 12:14:06;;;;;;;16.40;11.27;;;21.70;41.30;;;;;;7373266;19;20898;-48
2022/05/01 12:16:38;;;;;;;10.63;9.33;;;21.20;41.90;;;;;;7373348;19;20820;-48
2022/05/01 12:19:08;;;;;;;13.40;11.03;;;20.60;43.10;;;;;;7372246;19;20451;-48
2022/05/01 12:21:40;;;;;;;12.80;9.50;;;20.30;43.40;;;;;;7374284;19;20384;-48
2022/05/01 12:24:12;;;;;;;10.67;9.10;;;20.30;43.80;;;;;;7372377;19;20384;-48
2022/05/01 12:26:52;;;;;;;14.03;9.93;;;20.00;43.70;;;;;;7369228;19;21513;-48
2022/05/01 12:29:25;;;;;;;12.60;10.30;;;20.00;44.80;;;;;;7371245;19;20372;-47
2022/05/01 12:32:01;;;;;;;13.80;10.13;;;19.90;45.30;;;;;;7374985;19;20384;-48
2022/05/01 12:34:32;;;;;;;13.70;10.27;;;20.00;45.10;;;;;;7376001;19;20833;-48
2022/05/01 12:37:12;;;;;;;14.37;10.47;;;19.80;45.10;;;;;;7374693;19;20376;-48
2022/05/01 12:39:42;;;;;;;13.43;10.53;;;19.90;45.00;;;;;;7371214;19;20379;-49
2022/05/01 12:45:21;;;;;;;12.33;10.30;;;20.50;43.90;;;;;;7377459;19;20384;-48
2022/05/01 12:47:55;;;;;;;10.63;8.83;;;20.90;43.30;;;;;;7379202;19;20372;-49
2022/05/01 12:50:29;;;;;;;12.27;9.30;;;21.10;42.40;;;;;;7377966;19;21276;-48
2022/05/01 12:53:27;;;;;;;10.83;9.27;;;21.30;42.30;;;;;;7378878;19;20901;-48
2022/05/01 12:56:17;;;;;;;10.37;9.30;;;21.80;41.80;;;;;;7381350;19;20473;-48
2022/05/01 12:58:47;;;;;;;9.53;8.53;;;23.20;40.00;;;;;;7376033;19;20380;-48
2022/05/01 13:01:27;;;;;;;10.47;8.63;;;24.70;37.50;;;;;;7381255;19;20373;-48
2022/05/01 13:03:59;;;;;;;11.80;8.70;;;26.00;35.70;;;;;;7379664;19;21261;-47
2022/05/01 13:06:40;;;;;;;10.17;9.13;;;27.20;33.00;;;;;;7380078;19;20376;-48
2022/05/01 13:09:16;;;;;;;10.40;9.30;;;28.40;30.60;;;;;;7377306;19;20376;-48
2022/05/01 13:12:02;;;;;;;10.20;9.20;;;28.70;30.00;;;;;;7379030;19;20961;-48
2022/05/01 13:14:33;;;;;;;9.27;8.27;;;29.00;29.10;;;;;;7379955;19;20364;-48
2022/05/01 13:17:11;;;;;;;11.60;8.30;;;28.90;29.30;;;;;;7353028;19;20426;-47
2022/05/01 13:19:41;;;;;;;9.10;8.20;;;28.90;28.90;;;;;;7373942;19;21006;-48
2022/05/01 13:22:14;;;;;;;7.97;7.23;;;28.30;28.80;;;;;;7380915;19;20421;-48
2022/05/01 13:24:49;;;;;;;7.50;6.80;;;27.60;29.50;;;;;;7382250;19;20509;-48
2022/05/01 13:27:18;;;;;;;8.63;7.73;;;26.90;29.70;;;;;;7376698;19;20376;-48
2022/05/01 13:29:48;;;;;;;9.70;7.63;;;26.10;30.50;;;;;;7378403;19;20911;-48